Time;durP1;ratioP1;P1;durP2;ratioP2;P2;SDS_P1;SDS_P2;PMS_P1;PMS_P2;Temp;Humidity;BMP_temperature;BMP_pressure;BME280_temperature;BME280_humidity;BME280_pressure;Samples;Min_cycle;Max_cycle;Signal;HPM_P1;HPM_P2
2021/12/23 00:00:57;;;;;;;43.45;24.60;;;1.00;99.90;;;0.77;100.00;100983.16;4120767;28;20030;-65
2021/12/23 00:02:58;;;;;;;43.58;24.00;;;2.50;99.90;;;0.67;100.00;100986.34;4120787;28;20035;-65
2021/12/23 00:04:59;;;;;;;43.25;24.67;;;1.40;99.90;;;0.71;100.00;100996.47;4105828;28;20027;-65
2021/12/23 00:07:00;;;;;;;40.42;24.00;;;1.40;99.90;;;0.63;100.00;100980.47;4105785;28;20525;-65
2021/12/23 00:09:04;;;;;;;45.40;24.42;;;1.40;99.90;;;0.73;100.00;100986.00;4105696;29;20059;-65
2021/12/23 00:11:05;;;;;;;37.45;22.58;;;1.30;99.90;;;0.72;100.00;100979.16;4105821;29;20031;-65
2021/12/23 00:13:06;;;;;;;36.17;21.10;;;1.30;99.90;;;0.80;100.00;100979.53;4120562;28;20049;-65
2021/12/23 00:15:39;;;;;;;39.72;21.58;;;1.40;99.90;;;0.77;100.00;100977.94;4120725;28;20085;-65
2021/12/23 00:19:58;;;;;;;38.75;22.02;;;1.40;99.90;;;0.79;100.00;100988.22;4105657;28;20447;-65
2021/12/23 00:24:18;;;;;;;39.20;21.55;;;2.60;99.90;;;0.89;100.00;100982.44;4118086;28;20086;-65
2021/12/23 00:26:20;;;;;;;45.00;23.85;;;1.40;99.90;;;0.74;100.00;100972.09;4105758;29;20031;-66
2021/12/23 00:28:22;;;;;;;39.78;22.25;;;1.50;99.90;;;0.53;100.00;100968.97;4105625;28;20494;-65
2021/12/23 00:30:23;;;;;;;44.08;24.95;;;1.40;99.90;;;0.69;100.00;100974.94;4105487;28;20043;-65
2021/12/23 00:32:24;;;;;;;41.67;22.45;;;1.30;99.90;;;0.64;100.00;100961.38;4120204;28;20058;-65
2021/12/23 00:34:25;;;;;;;41.08;22.55;;;1.40;99.90;;;0.62;100.00;100950.28;4124385;28;20048;-65
2021/12/23 00:36:26;;;;;;;37.50;22.25;;;1.40;99.90;;;0.70;100.00;100955.84;4105565;28;20019;-66
2021/12/23 00:38:32;;;;;;;36.92;22.80;;;1.30;99.90;;;0.61;100.00;100953.78;4105332;29;20564;-65
2021/12/23 00:40:33;;;;;;;37.22;21.25;;;1.10;99.90;;;0.59;100.00;100947.84;4119636;28;20030;-65
2021/12/23 00:42:34;;;;;;;43.03;25.60;;;-0.20;99.90;;;0.43;100.00;100945.28;4120324;28;20688;-65
2021/12/23 00:44:40;;;;;;;42.45;23.17;;;1.30;99.90;;;0.46;100.00;100952.06;4105401;28;20039;-65
2021/12/23 00:46:41;;;;;;;39.35;23.10;;;1.20;99.90;;;0.56;100.00;100948.03;4120029;28;20036;-65
2021/12/23 00:48:42;;;;;;;45.35;24.42;;;1.60;99.90;;;0.29;100.00;100952.19;4105231;29;20066;-65
2021/12/23 00:50:44;;;;;;;42.25;24.08;;;1.30;99.90;;;0.37;100.00;100953.41;4105370;28;20032;-65
2021/12/23 00:52:54;;;;;;;41.40;24.23;;;1.10;99.90;;;0.39;100.00;100948.13;4119601;28;20019;-65
2021/12/23 00:54:55;;;;;;;45.60;26.42;;;1.20;99.90;;;0.22;100.00;100950.84;4103591;28;20039;-66
2021/12/23 00:56:56;;;;;;;40.17;22.60;;;1.20;99.90;;;0.45;100.00;100956.41;4105080;28;20070;-66
2021/12/23 00:58:57;;;;;;;42.85;23.30;;;1.10;99.90;;;0.54;100.00;100955.03;4103845;28;20102;-66
2021/12/23 01:01:00;;;;;;;45.88;23.27;;;1.10;99.90;;;0.35;100.00;100950.06;4105268;29;20043;-66
2021/12/23 01:03:03;;;;;;;39.15;21.83;;;1.20;99.90;;;0.42;100.00;100955.72;4105228;28;20102;-65
2021/12/23 01:05:04;;;;;;;38.42;22.27;;;1.20;99.90;;;0.48;100.00;100955.38;4104969;28;20550;-66
2021/12/23 01:07:05;;;;;;;43.53;23.25;;;1.20;99.90;;;0.53;100.00;100946.44;4119811;28;20050;-65
2021/12/23 01:09:07;;;;;;;41.30;22.42;;;1.20;99.90;;;0.51;100.00;100952.63;4104878;29;20035;-65
2021/12/23 01:11:09;;;;;;;43.28;23.85;;;1.20;99.90;;;0.44;100.00;100946.13;4119852;28;20118;-65
2021/12/23 01:13:13;;;;;;;39.55;22.95;;;1.20;99.90;;;0.30;100.00;100940.88;4119583;28;20042;-65
2021/12/23 01:15:38;;;;;;;37.08;21.35;;;1.20;99.90;;;0.28;100.00;100934.94;4095389;29;20453;-65
2021/12/23 01:19:56;;;;;;;35.38;21.52;;;1.10;99.90;;;0.33;100.00;100930.34;4117938;28;20042;-65
2021/12/23 01:21:57;;;;;;;40.30;22.13;;;1.20;99.90;;;0.49;100.00;100936.31;4104794;28;20035;-65
2021/12/23 01:23:58;;;;;;;38.20;22.65;;;1.10;99.90;;;0.63;99.59;100918.19;4104548;28;20035;-65
2021/12/23 01:25:59;;;;;;;37.05;21.17;;;1.20;99.90;;;0.59;98.87;100916.72;4119351;28;20023;-65
2021/12/23 01:28:01;;;;;;;37.55;22.58;;;1.20;99.90;;;0.53;99.67;100919.66;4103605;29;20034;-65
2021/12/23 01:30:03;;;;;;;40.35;20.48;;;1.20;99.90;;;0.37;100.00;100906.72;4103509;29;20040;-65
2021/12/23 01:32:06;;;;;;;38.20;21.90;;;1.10;99.90;;;0.42;100.00;100915.06;4104721;28;20031;-65
2021/12/23 01:34:07;;;;;;;38.97;22.25;;;1.60;99.90;;;0.28;100.00;100911.56;4119281;28;20526;-65
2021/12/23 01:36:08;;;;;;;43.80;24.02;;;0.60;99.90;;;0.39;100.00;100910.03;4104730;28;20054;-65
2021/12/23 01:38:09;;;;;;;41.63;25.05;;;1.10;99.90;;;0.17;100.00;100898.38;4119134;28;20063;-65
2021/12/23 01:40:13;;;;;;;48.60;26.27;;;1.10;99.90;;;0.26;100.00;100914.28;4099501;28;20042;-65
2021/12/23 01:42:14;;;;;;;44.58;26.10;;;2.60;99.90;;;0.33;100.00;100910.38;4104504;28;20070;-65
2021/12/23 01:44:15;;;;;;;42.88;24.17;;;1.00;99.90;;;0.46;100.00;100918.31;4119385;28;20089;-65
2021/12/23 01:46:16;;;;;;;44.65;25.50;;;1.10;99.90;;;0.40;100.00;100901.34;4103230;28;20027;-65
2021/12/23 01:48:18;;;;;;;41.05;24.02;;;1.10;99.90;;;0.42;100.00;100907.28;4104195;28;20031;-65
2021/12/23 01:50:26;;;;;;;39.92;23.63;;;1.00;99.90;;;0.53;98.93;100901.50;4118958;28;20038;-65
2021/12/23 01:52:27;;;;;;;44.55;25.90;;;1.10;99.90;;;0.31;99.70;100898.44;4118735;28;20022;-66
2021/12/23 01:54:28;;;;;;;47.38;27.38;;;1.10;99.90;;;0.22;100.00;100891.16;4104019;28;20102;-66
2021/12/23 01:56:29;;;;;;;40.83;25.25;;;1.00;99.90;;;0.32;100.00;100898.38;4104368;28;20027;-66
2021/12/23 01:58:34;;;;;;;46.15;26.65;;;1.60;99.90;;;0.33;100.00;100897.41;4118821;28;20482;-66
2021/12/23 02:00:39;;;;;;;47.78;25.00;;;0.90;99.90;;;0.48;100.00;100898.31;4118781;28;20093;-66
2021/12/23 02:02:41;;;;;;;41.70;24.65;;;1.00;99.90;;;0.33;100.00;100894.81;4104382;28;20034;-65
2021/12/23 02:04:42;;;;;;;45.83;26.63;;;1.00;99.90;;;0.31;100.00;100901.03;4118941;28;20043;-65
2021/12/23 02:06:43;;;;;;;47.58;28.27;;;1.10;99.90;;;0.19;100.00;100901.72;4103944;28;20054;-65
2021/12/23 02:08:44;;;;;;;48.10;27.35;;;1.00;99.90;;;0.28;100.00;100896.00;4103888;28;20039;-65
2021/12/23 02:10:46;;;;;;;42.55;25.67;;;1.10;99.90;;;0.56;100.00;100901.31;4104027;28;20078;-65
2021/12/23 02:12:49;;;;;;;44.28;24.13;;;1.00;99.90;;;0.48;99.43;100895.69;4119027;28;20027;-65
2021/12/23 02:14:50;;;;;;;42.00;25.55;;;1.10;99.90;;;0.40;100.00;100903.09;4118858;28;20052;-65
2021/12/23 02:16:51;;;;;;;44.95;25.77;;;2.00;99.90;;;0.17;100.00;100913.94;4118909;28;20026;-65
2021/12/23 02:18:51;;;;;;;47.53;27.33;;;1.00;99.90;;;0.27;100.00;100912.53;4118807;28;20019;-65
2021/12/23 02:20:53;;;;;;;48.78;26.52;;;1.00;99.90;;;0.45;100.00;100907.09;4102880;29;20034;-65
2021/12/23 02:22:54;;;;;;;47.08;26.55;;;1.10;99.90;;;0.34;100.00;100917.25;4103572;28;20035;-65
2021/12/23 02:24:55;;;;;;;43.28;25.90;;;1.10;99.90;;;0.24;100.00;100892.75;4104089;29;20082;-65
2021/12/23 02:26:56;;;;;;;39.97;23.20;;;2.10;99.90;;;0.27;100.00;100895.16;4104151;28;20110;-65
2021/12/23 02:28:57;;;;;;;44.60;24.65;;;3.00;99.90;;;0.44;100.00;100902.00;4104066;29;20031;-65
2021/12/23 02:30:58;;;;;;;49.55;26.30;;;1.10;99.90;;;0.55;100.00;100910.84;4118613;28;20402;-65
2021/12/23 02:32:58;;;;;;;47.58;25.45;;;0.90;99.90;;;0.52;100.00;100899.81;4118809;28;20038;-65
2021/12/23 02:34:59;;;;;;;45.50;26.63;;;1.10;99.90;;;0.85;99.33;100897.84;4102719;28;20023;-65
2021/12/23 02:37:00;;;;;;;44.95;24.77;;;1.20;99.90;;;0.60;99.77;100895.00;4102778;28;20027;-65
2021/12/23 02:39:02;;;;;;;44.05;24.60;;;1.40;99.90;;;0.14;100.00;100901.16;4102284;28;20407;-65
2021/12/23 02:41:03;;;;;;;40.42;24.60;;;1.00;99.90;;;0.22;100.00;100896.34;4118762;28;20082;-65
2021/12/23 02:43:18;;;;;;;45.42;25.88;;;1.20;99.90;;;0.48;100.00;100898.31;4102610;28;20023;-65
2021/12/23 02:45:19;;;;;;;41.13;23.85;;;2.30;99.90;;;0.86;100.00;100901.28;4118495;28;20091;-65
2021/12/23 02:47:20;;;;;;;37.60;21.67;;;1.30;99.90;;;0.76;100.00;100890.59;4118680;28;20042;-65
2021/12/23 02:49:21;;;;;;;41.80;22.92;;;1.80;99.90;;;0.77;100.00;100891.44;4103836;28;20027;-65
2021/12/23 02:51:22;;;;;;;41.92;24.98;;;1.50;99.90;;;0.78;100.00;100886.13;4103821;28;20574;-65
2021/12/23 02:53:24;;;;;;;42.97;23.95;;;1.50;99.90;;;0.76;100.00;100897.53;4118348;28;20065;-65
2021/12/23 02:55:25;;;;;;;45.03;23.50;;;1.60;99.90;;;0.91;100.00;100891.44;4103929;28;20023;-66
2021/12/23 02:57:26;;;;;;;39.28;25.05;;;1.60;99.90;;;0.90;100.00;100900.16;4103829;28;20130;-66
2021/12/23 02:59:27;;;;;;;42.40;24.20;;;0.30;99.90;;;0.95;100.00;100904.16;4103802;28;20027;-65
2021/12/23 03:01:28;;;;;;;41.03;22.17;;;1.80;99.90;;;1.06;100.00;100891.38;4103785;29;20032;-65
2021/12/23 03:03:29;;;;;;;45.33;25.20;;;1.70;99.90;;;0.95;100.00;100886.00;4118445;28;20023;-66
2021/12/23 03:05:30;;;;;;;42.08;24.33;;;1.90;99.90;;;1.00;100.00;100883.09;4102233;28;20051;-66
2021/12/23 03:07:31;;;;;;;41.78;24.75;;;1.90;99.90;;;0.99;100.00;100871.88;4103482;29;20126;-65
2021/12/23 03:09:32;;;;;;;42.80;25.50;;;1.90;99.90;;;0.94;100.00;100873.94;4118357;28;20045;-65
2021/12/23 03:11:33;;;;;;;43.20;24.58;;;1.90;99.90;;;1.04;100.00;100872.47;4103511;28;20075;-65
2021/12/23 03:13:34;;;;;;;40.60;24.55;;;2.80;99.90;;;1.07;100.00;100874.03;4103650;29;20038;-65
2021/12/23 03:15:35;;;;;;;42.95;24.60;;;2.00;99.90;;;1.17;100.00;100864.72;4118437;28;20023;-65
2021/12/23 03:17:36;;;;;;;43.58;24.25;;;2.10;99.90;;;0.99;100.00;100858.88;4105775;28;20055;-65
2021/12/23 03:19:37;;;;;;;41.53;23.65;;;2.00;99.90;;;1.05;100.00;100863.72;4121582;28;20015;-65
2021/12/23 03:21:38;;;;;;;42.00;23.17;;;2.00;99.90;;;1.16;100.00;100851.84;4121472;28;20062;-65
2021/12/23 03:23:39;;;;;;;41.90;24.05;;;2.10;99.90;;;1.20;100.00;100848.13;4105232;29;20062;-65
2021/12/23 03:25:40;;;;;;;42.80;23.95;;;1.90;99.90;;;1.24;100.00;100847.84;4121437;28;20093;-65
2021/12/23 03:27:41;;;;;;;46.85;26.27;;;1.90;99.90;;;1.33;100.00;100854.25;4121183;28;20038;-65
2021/12/23 03:29:42;;;;;;;41.97;24.42;;;2.20;99.90;;;1.06;100.00;100844.63;4110424;28;20030;-65
2021/12/23 03:31:43;;;;;;;43.38;25.42;;;1.70;99.90;;;1.25;100.00;100851.28;4121356;28;20526;-65
2021/12/23 03:33:44;;;;;;;43.50;25.25;;;2.20;99.90;;;1.40;100.00;100858.16;4106497;28;20031;-65
2021/12/23 03:35:47;;;;;;;48.83;27.13;;;2.20;99.90;;;1.40;100.00;100858.16;4106292;28;20071;-65
2021/12/23 03:37:48;;;;;;;41.88;24.00;;;2.30;99.90;;;1.37;100.00;100856.56;4121016;28;20126;-65
2021/12/23 03:39:51;;;;;;;47.95;27.38;;;2.30;99.90;;;1.45;100.00;100850.88;4106293;28;20039;-65
2021/12/23 03:41:52;;;;;;;45.47;26.55;;;2.40;99.90;;;1.38;100.00;100854.78;4105071;28;20119;-65
2021/12/23 03:43:53;;;;;;;49.80;25.60;;;2.40;99.90;;;1.33;100.00;100854.25;4120955;28;20027;-65
2021/12/23 03:45:54;;;;;;;43.50;25.63;;;2.40;99.90;;;1.56;100.00;100864.88;4106384;28;20030;-65
2021/12/23 03:47:55;;;;;;;41.65;25.00;;;2.40;99.90;;;1.73;100.00;100852.59;4121102;28;20037;-65
2021/12/23 03:49:55;;;;;;;45.35;25.92;;;2.50;99.90;;;1.57;100.00;100843.16;4106151;28;20027;-65
2021/12/23 03:51:56;;;;;;;45.70;25.08;;;2.50;99.90;;;1.56;100.00;100848.44;4120886;28;20090;-65
2021/12/23 03:53:58;;;;;;;44.25;25.40;;;4.00;99.90;;;1.55;100.00;100841.59;4105944;28;20109;-65
2021/12/23 03:55:59;;;;;;;45.05;25.45;;;2.50;99.90;;;1.75;100.00;100854.16;4121000;28;20063;-65
2021/12/23 03:58:00;;;;;;;42.47;25.48;;;2.50;99.90;;;1.65;100.00;100834.88;4120899;28;20026;-65
2021/12/23 04:00:04;;;;;;;44.38;24.58;;;2.60;99.90;;;1.73;100.00;100843.03;4105931;28;20455;-65
2021/12/23 04:02:05;;;;;;;41.78;23.33;;;2.70;99.90;;;1.86;100.00;100848.28;4106179;28;20487;-65
2021/12/23 04:04:06;;;;;;;47.30;25.63;;;2.70;99.90;;;1.70;100.00;100840.63;4106031;28;20483;-65
2021/12/23 04:06:07;;;;;;;42.83;24.90;;;2.70;99.90;;;1.63;100.00;100829.78;4120489;28;20049;-65
2021/12/23 04:08:08;;;;;;;44.72;24.75;;;2.60;99.90;;;1.73;100.00;100840.44;4104468;28;20062;-65
2021/12/23 04:10:14;;;;;;;41.33;25.23;;;3.00;99.90;;;1.66;100.00;100823.53;4120740;28;20042;-65
2021/12/23 04:12:15;;;;;;;45.03;25.77;;;2.70;99.90;;;1.68;100.00;100829.47;4120573;28;20030;-67
2021/12/23 04:14:16;;;;;;;42.10;24.77;;;2.70;99.90;;;1.93;100.00;100831.34;4104516;28;20119;-66
2021/12/23 04:16:17;;;;;;;41.72;25.02;;;1.70;99.90;;;1.87;100.00;100824.78;4120569;28;20514;-66
2021/12/23 04:18:18;;;;;;;41.50;24.38;;;2.60;99.90;;;2.06;100.00;100821.81;4120713;28;20043;-66
2021/12/23 04:20:29;;;;;;;43.85;24.25;;;2.80;99.90;;;2.01;100.00;100829.06;4120690;28;20047;-65
2021/12/23 04:22:30;;;;;;;45.55;25.80;;;2.90;99.90;;;2.04;100.00;100834.91;4105402;29;20042;-65
2021/12/23 04:24:31;;;;;;;42.90;24.23;;;3.00;99.90;;;1.98;100.00;100835.31;4105619;28;20027;-65
2021/12/23 04:26:32;;;;;;;42.67;24.95;;;3.00;99.90;;;2.06;100.00;100820.03;4105786;28;20067;-65
2021/12/23 04:28:38;;;;;;;43.78;24.67;;;2.90;99.90;;;2.14;100.00;100814.34;4119407;28;20090;-65
2021/12/23 04:30:39;;;;;;;43.90;25.27;;;2.90;99.90;;;2.30;100.00;100814.97;4105617;28;20031;-65
2021/12/23 04:32:41;;;;;;;44.88;25.55;;;3.10;99.90;;;2.24;100.00;100821.44;4105515;28;20031;-65
2021/12/23 04:34:42;;;;;;;46.92;26.63;;;2.60;99.90;;;2.18;100.00;100831.44;4120468;28;20033;-65
2021/12/23 04:36:43;;;;;;;41.55;23.20;;;3.10;99.90;;;2.04;100.00;100816.72;4105629;28;20074;-65
2021/12/23 04:38:46;;;;;;;42.95;23.38;;;3.10;99.90;;;2.29;100.00;100820.31;4120058;28;20118;-65
2021/12/23 04:40:47;;;;;;;46.85;26.77;;;3.10;99.90;;;2.23;100.00;100818.94;4120106;28;20030;-65
2021/12/23 04:42:48;;;;;;;42.58;24.50;;;3.10;99.90;;;2.23;100.00;100814.59;4120276;28;20085;-65
2021/12/23 04:44:49;;;;;;;46.72;25.27;;;3.10;99.90;;;2.21;100.00;100819.03;4120230;28;20504;-65
2021/12/23 04:46:50;;;;;;;45.47;24.45;;;3.20;99.90;;;2.22;100.00;100819.88;4136171;28;20468;-65
2021/12/23 04:48:52;;;;;;;41.45;24.52;;;3.10;99.90;;;2.13;100.00;100817.88;4105222;28;20442;-65
2021/12/23 04:50:53;;;;;;;41.25;24.20;;;3.10;99.90;;;2.19;100.00;100814.88;4105270;28;20035;-65
2021/12/23 04:52:54;;;;;;;43.08;23.92;;;3.10;99.90;;;2.31;100.00;100808.84;4105001;28;20495;-65
2021/12/23 04:54:55;;;;;;;40.63;22.17;;;3.00;99.90;;;2.36;100.00;100808.56;4105198;29;20031;-65
2021/12/23 04:56:56;;;;;;;42.85;23.42;;;3.70;99.90;;;2.28;100.00;100809.06;4105097;28;20033;-65
2021/12/23 04:58:57;;;;;;;41.45;24.73;;;3.20;99.90;;;2.25;100.00;100809.25;4120045;28;20027;-65
2021/12/23 05:00:58;;;;;;;40.47;23.95;;;3.20;99.90;;;2.32;100.00;100809.69;4105182;28;20488;-65
2021/12/23 05:02:59;;;;;;;37.22;22.42;;;3.20;99.90;;;2.27;100.00;100804.78;4119880;28;20086;-65
2021/12/23 05:05:00;;;;;;;38.78;23.38;;;3.10;99.90;;;2.20;100.00;100800.94;4104929;28;20087;-65
2021/12/23 05:07:01;;;;;;;39.83;23.05;;;3.40;99.90;;;2.16;100.00;100800.28;4104861;28;20645;-65
2021/12/23 05:09:02;;;;;;;37.15;21.92;;;3.10;99.90;;;2.12;100.00;100798.81;4104637;29;20039;-65
2021/12/23 05:11:03;;;;;;;41.50;23.08;;;3.00;99.90;;;2.27;100.00;100798.75;4104941;29;20043;-65
2021/12/23 05:13:04;;;;;;;39.08;22.45;;;3.10;99.90;;;2.28;100.00;100800.41;4104795;28;20027;-65
2021/12/23 05:15:06;;;;;;;38.08;21.25;;;3.00;99.90;;;2.04;100.00;100801.09;4119935;28;20023;-65
2021/12/23 05:17:07;;;;;;;38.20;22.77;;;2.20;99.90;;;2.06;100.00;100795.81;4104813;28;20030;-65
2021/12/23 05:19:08;;;;;;;35.75;20.92;;;2.90;99.90;;;2.08;100.00;100786.13;4103779;28;20027;-65
2021/12/23 05:21:09;;;;;;;38.38;21.58;;;2.90;99.90;;;2.06;100.00;100786.22;4104583;29;20491;-65
2021/12/23 05:23:10;;;;;;;33.25;20.67;;;3.00;99.90;;;1.98;100.00;100782.44;4104845;28;20498;-65
2021/12/23 05:25:11;;;;;;;36.22;21.95;;;4.10;99.90;;;1.95;100.00;100783.50;4119561;28;20062;-65
2021/12/23 05:27:12;;;;;;;36.75;21.33;;;2.70;99.90;;;1.87;100.00;100785.75;4104735;28;20059;-65
2021/12/23 05:29:14;;;;;;;38.22;21.80;;;2.60;99.90;;;1.72;100.00;100791.13;4104584;29;20042;-65
2021/12/23 05:31:15;;;;;;;33.53;19.50;;;2.60;99.90;;;1.83;100.00;100792.09;4104590;28;20058;-65
2021/12/23 05:33:16;;;;;;;36.67;20.67;;;2.50;99.90;;;1.84;100.00;100779.94;4104565;28;20034;-65
2021/12/23 05:35:19;;;;;;;34.65;21.63;;;2.50;99.90;;;1.87;100.00;100779.72;4104587;29;20110;-65
2021/12/23 05:37:20;;;;;;;32.15;20.52;;;2.50;99.90;;;1.85;100.00;100766.00;4118905;28;20061;-65
2021/12/23 05:39:21;;;;;;;34.63;20.20;;;2.50;99.90;;;2.02;100.00;100774.38;4092134;28;20114;-65
2021/12/23 05:41:26;;;;;;;34.83;21.40;;;2.60;99.90;;;1.76;100.00;100777.84;4104493;28;20444;-65
2021/12/23 05:43:27;;;;;;;36.53;22.58;;;2.50;99.90;;;1.71;100.00;100779.03;4104455;28;20035;-65
2021/12/23 05:45:29;;;;;;;34.45;20.05;;;2.60;99.90;;;1.67;100.00;100774.03;4104282;28;20403;-65
2021/12/23 05:47:29;;;;;;;34.95;19.50;;;2.60;99.90;;;1.82;100.00;100761.84;4119109;28;20030;-66
2021/12/23 05:49:31;;;;;;;35.88;20.73;;;2.60;99.90;;;1.90;100.00;100769.97;4119279;28;20126;-65
2021/12/23 05:51:32;;;;;;;34.88;21.05;;;2.60;99.90;;;2.07;100.00;100756.66;4104329;28;20114;-65
2021/12/23 05:53:33;;;;;;;34.20;21.27;;;2.70;99.90;;;1.99;100.00;100758.94;4104040;28;20442;-65
2021/12/23 05:55:34;;;;;;;37.28;20.75;;;2.70;99.90;;;1.85;100.00;100763.41;4119267;28;20054;-65
2021/12/23 05:57:36;;;;;;;36.05;21.27;;;2.80;99.90;;;1.87;100.00;100759.75;4104345;28;20106;-65
2021/12/23 05:59:37;;;;;;;36.67;21.88;;;1.30;99.90;;;2.06;100.00;100769.78;4119053;28;20019;-66
2021/12/23 06:01:38;;;;;;;31.35;20.30;;;2.80;99.90;;;1.96;100.00;100759.16;4118881;28;20034;-66
2021/12/23 06:03:41;;;;;;;38.05;21.45;;;3.70;99.90;;;1.91;100.00;100756.00;4104217;28;20486;-66
2021/12/23 06:05:42;;;;;;;35.35;20.52;;;2.80;99.90;;;2.03;100.00;100754.38;4103901;28;20031;-66
2021/12/23 06:07:44;;;;;;;32.75;20.23;;;2.90;99.90;;;1.91;100.00;100757.78;4103859;28;20038;-65
2021/12/23 06:09:44;;;;;;;35.67;20.65;;;2.90;99.90;;;1.83;100.00;100762.63;4104025;28;20499;-65
2021/12/23 06:11:45;;;;;;;35.83;20.42;;;2.90;99.90;;;2.01;100.00;100771.84;4104140;28;20035;-65
2021/12/23 06:13:46;;;;;;;36.60;21.75;;;2.90;99.90;;;2.05;100.00;100760.31;4104083;28;20069;-65
2021/12/23 06:15:47;;;;;;;35.38;22.13;;;2.90;99.90;;;2.24;100.00;100765.94;4118784;28;20074;-65
2021/12/23 06:17:48;;;;;;;33.47;20.05;;;2.90;99.90;;;2.24;100.00;100774.59;4103951;28;20069;-65
2021/12/23 06:19:49;;;;;;;33.97;20.52;;;3.00;99.90;;;2.05;100.00;100766.34;4118920;28;20105;-65
2021/12/23 06:21:50;;;;;;;33.10;19.88;;;3.00;99.90;;;2.02;100.00;100766.56;4118820;28;20390;-65
2021/12/23 06:23:51;;;;;;;36.55;20.73;;;2.30;99.90;;;2.07;100.00;100784.44;4118429;28;20042;-65
2021/12/23 06:25:53;;;;;;;36.15;20.58;;;3.00;99.90;;;2.17;100.00;100773.34;4103933;28;20106;-65
2021/12/23 06:27:53;;;;;;;32.40;22.05;;;3.10;99.90;;;2.34;100.00;100779.19;4103990;28;20034;-65
2021/12/23 06:29:54;;;;;;;35.42;20.70;;;3.80;99.90;;;2.37;100.00;100785.03;4118686;28;20019;-65
2021/12/23 06:31:55;;;;;;;32.97;20.33;;;3.20;99.90;;;2.37;100.00;100773.78;4103832;28;20471;-65
2021/12/23 06:33:56;;;;;;;34.33;21.00;;;3.10;99.90;;;2.36;100.00;100774.72;4118587;28;20097;-65
2021/12/23 06:35:57;;;;;;;35.20;20.88;;;3.20;99.90;;;2.39;100.00;100771.91;4103944;28;20034;-65
2021/12/23 06:38:06;;;;;;;35.25;20.92;;;3.20;99.90;;;2.46;100.00;100773.16;4118388;28;20494;-65
2021/12/23 06:40:08;;;;;;;33.42;21.08;;;3.30;99.90;;;2.47;100.00;100773.06;4103805;28;20031;-66
2021/12/23 06:42:09;;;;;;;34.53;21.23;;;3.30;99.90;;;2.50;100.00;100772.84;4118469;28;20182;-66
2021/12/23 06:44:10;;;;;;;35.35;20.67;;;3.40;99.90;;;2.52;100.00;100772.75;4103892;28;20035;-66
2021/12/23 06:46:11;;;;;;;32.83;20.25;;;3.30;99.90;;;2.41;100.00;100765.66;4103817;28;20028;-65
2021/12/23 06:48:12;;;;;;;36.35;22.52;;;3.30;99.90;;;2.34;100.00;100769.59;4103796;28;20031;-66
2021/12/23 06:50:15;;;;;;;41.50;22.50;;;3.30;99.90;;;2.39;100.00;100774.53;4103537;28;20698;-66
2021/12/23 06:52:17;;;;;;;34.45;20.88;;;2.90;99.90;;;2.47;100.00;100765.25;4104072;28;20063;-65
2021/12/23 06:54:18;;;;;;;34.95;21.52;;;3.30;99.90;;;2.57;100.00;100781.09;4107072;29;20399;-65
2021/12/23 06:56:19;;;;;;;37.85;23.02;;;3.40;99.90;;;2.51;100.00;100779.72;4106962;28;20046;-66
2021/12/23 06:58:20;;;;;;;37.33;21.70;;;4.70;99.90;;;2.52;100.00;100777.94;4121568;28;20511;-65
2021/12/23 07:00:22;;;;;;;33.17;19.60;;;3.40;99.90;;;2.52;100.00;100784.00;4106984;28;20050;-65
2021/12/23 07:02:24;;;;;;;33.33;21.08;;;3.50;99.90;;;2.64;100.00;100787.53;4121685;28;20030;-66
2021/12/23 07:04:30;;;;;;;37.70;21.38;;;3.10;99.90;;;2.66;100.00;100796.06;4105612;28;20058;-65
2021/12/23 07:06:34;;;;;;;41.42;21.30;;;3.40;99.90;;;2.66;100.00;100785.66;4106481;28;20122;-65
2021/12/23 07:08:37;;;;;;;;;;;3.50;99.90;;;2.70;100.00;100787.13;4121652;28;20035;-65
2021/12/23 07:10:39;;;;;;;38.58;20.23;;;3.60;99.90;;;2.74;100.00;100799.84;4105603;29;19938;-65
2021/12/23 07:12:40;;;;;;;39.92;21.27;;;3.60;99.90;;;2.69;100.00;100798.47;4106960;28;20026;-65
2021/12/23 07:14:41;;;;;;;36.65;21.95;;;3.60;99.90;;;2.76;100.00;100794.50;4121513;28;20027;-65
2021/12/23 07:16:42;;;;;;;46.38;23.35;;;3.60;99.90;;;2.74;100.00;100793.78;4121678;28;20109;-65
2021/12/23 07:18:43;;;;;;;40.35;21.80;;;3.60;99.90;;;2.79;100.00;100808.16;4106730;28;20028;-65
2021/12/23 07:20:44;;;;;;;39.13;22.38;;;3.60;99.90;;;2.79;100.00;100802.09;4106659;28;20028;-65
2021/12/23 07:22:47;;;;;;;43.65;20.90;;;3.60;99.90;;;2.84;100.00;100807.84;4106191;28;20083;-65
2021/12/23 07:24:48;;;;;;;39.42;21.48;;;3.70;99.90;;;2.97;100.00;100816.47;4121453;28;20546;-65
2021/12/23 07:26:49;;;;;;;37.03;22.85;;;3.70;99.90;;;3.06;100.00;100821.06;4121348;28;20042;-65
2021/12/23 07:28:50;;;;;;;37.25;20.92;;;3.70;99.90;;;2.99;100.00;100811.16;4121196;28;20027;-65
2021/12/23 07:30:51;;;;;;;41.67;22.08;;;3.70;99.90;;;2.97;100.00;100813.88;4106367;28;20042;-65
2021/12/23 07:32:54;;;;;;;42.95;22.42;;;3.80;99.90;;;2.99;100.00;100814.59;4121328;28;20034;-65
2021/12/23 07:34:54;;;;;;;35.88;21.90;;;3.80;99.90;;;2.99;100.00;100814.59;4121164;28;20109;-65
2021/12/23 07:36:56;;;;;;;37.10;20.77;;;3.80;99.90;;;2.99;100.00;100809.38;4121211;28;20018;-65
2021/12/23 07:38:57;;;;;;;47.10;23.23;;;3.80;99.90;;;2.89;100.00;100805.75;4104721;29;20023;-65
2021/12/23 07:40:58;;;;;;;57.03;23.90;;;3.80;99.90;;;2.92;100.00;100812.53;4105182;28;20035;-65
2021/12/23 07:43:20;;;;;;;42.85;22.00;;;4.00;99.90;;;3.02;100.00;100810.94;4105034;28;20043;-65
2021/12/23 07:45:28;;;;;;;39.58;21.95;;;3.90;99.90;;;3.04;100.00;100807.31;4118803;28;20442;-65
2021/12/23 07:47:31;;;;;;;47.60;22.95;;;3.90;99.90;;;3.16;100.00;100803.00;4120898;28;20585;-65
2021/12/23 07:49:32;;;;;;;51.72;24.30;;;3.90;99.90;;;3.18;100.00;100795.91;4106275;28;20031;-65
2021/12/23 07:51:33;;;;;;;47.95;23.10;;;4.00;99.90;;;3.18;100.00;100799.34;4106123;28;20032;-65
2021/12/23 07:53:34;;;;;;;41.03;22.60;;;4.00;99.90;;;3.22;100.00;100800.81;4104517;29;20023;-65
2021/12/23 07:55:38;;;;;;;45.25;23.17;;;4.00;99.90;;;3.32;100.00;100804.44;4120968;28;20062;-65
2021/12/23 07:57:39;;;;;;;37.17;19.17;;;3.10;99.90;;;3.33;100.00;100802.66;4120684;28;20269;-65
2021/12/23 07:59:40;;;;;;;67.22;24.42;;;4.20;99.90;;;3.37;100.00;100818.91;4120830;28;20399;-65
2021/12/23 08:01:41;;;;;;;42.25;21.65;;;4.20;99.90;;;3.38;100.00;100816.19;4105795;28;20047;-65
2021/12/23 08:03:41;;;;;;;39.25;21.58;;;4.40;99.90;;;3.50;100.00;100815.31;4120482;28;20080;-65
2021/12/23 08:05:43;;;;;;;35.83;21.58;;;4.30;99.90;;;3.64;100.00;100806.53;4120319;28;20039;-66
2021/12/23 08:07:43;;;;;;;38.05;20.27;;;4.30;99.90;;;3.71;100.00;100812.94;4105582;28;20062;-65
2021/12/23 08:09:44;;;;;;;37.90;20.88;;;4.50;99.90;;;3.72;100.00;100810.25;4120375;28;20027;-65
2021/12/23 08:11:45;;;;;;;52.75;25.15;;;4.50;99.90;;;3.75;100.00;100810.03;4093917;29;20034;-66
2021/12/23 08:13:46;;;;;;;69.75;25.00;;;4.60;99.90;;;3.79;100.00;100821.06;4120484;28;20074;-65
2021/12/23 08:15:47;;;;;;;52.35;23.90;;;5.30;99.90;;;3.87;100.00;100826.56;4120556;28;20034;-65
2021/12/23 08:17:49;;;;;;;37.40;22.08;;;4.70;99.90;;;4.01;100.00;100818.56;4105473;28;20023;-65
2021/12/23 08:19:50;;;;;;;39.00;23.35;;;4.70;99.90;;;4.12;100.00;100823.81;4105619;28;20027;-65
2021/12/23 08:21:51;;;;;;;43.60;22.58;;;5.60;99.90;;;4.28;100.00;100832.19;4105521;28;20078;-65
2021/12/23 08:23:52;;;;;;;40.58;22.15;;;5.00;99.90;;;4.27;100.00;100837.53;4088146;28;20118;-65
2021/12/23 08:25:55;;;;;;;42.67;21.92;;;5.00;99.90;;;4.35;100.00;100841.25;4105649;28;20034;-65
2021/12/23 08:27:56;;;;;;;43.03;22.45;;;5.10;99.90;;;4.48;100.00;100846.38;4120372;28;20150;-65